createdAt,value
2023-02-12T00:02:15.765Z,100278.88
2023-02-12T00:04:48.267Z,100266.31
2023-02-12T00:07:20.665Z,100282.03
2023-02-12T00:09:52.605Z,100283.25
2023-02-12T00:12:25.011Z,100285.44
2023-02-12T00:14:56.955Z,100294.22
2023-02-12T00:17:29.393Z,100283.56
2023-02-12T00:20:01.423Z,100286.84
2023-02-12T00:22:33.923Z,100276.13
2023-02-12T00:25:06.207Z,100273.88
2023-02-12T00:27:38.648Z,100283.03
2023-02-12T00:30:11.041Z,100277.50
2023-02-12T00:32:45.647Z,100279.63
2023-02-12T00:35:17.693Z,100291.03
2023-02-12T00:37:50.120Z,100288.22
2023-02-12T00:40:22.178Z,100283.59
2023-02-12T00:42:54.858Z,100290.53
2023-02-12T00:45:26.832Z,100295.50
2023-02-12T00:47:59.671Z,100294.84
2023-02-12T00:50:32.003Z,100290.47
2023-02-12T00:53:05.859Z,100294.50
2023-02-12T00:55:37.766Z,100294.97
2023-02-12T00:58:10.825Z,100296.19
2023-02-12T01:00:43.647Z,100285.88
2023-02-12T01:03:16.660Z,100284.22
2023-02-12T01:05:48.629Z,100279.47
2023-02-12T01:08:21.068Z,100289.41
2023-02-12T01:11:02.804Z,100287.66
2023-02-12T01:13:36.078Z,100295.97
2023-02-12T01:16:21.760Z,100290.00
2023-02-12T01:18:56.309Z,100293.91
2023-02-12T01:21:32.885Z,100283.06
2023-02-12T01:24:05.870Z,100278.41
2023-02-12T01:26:37.847Z,100284.09
2023-02-12T01:29:11.145Z,100283.78
2023-02-12T01:31:43.334Z,100284.47
2023-02-12T01:34:15.876Z,100272.88
2023-02-12T01:36:47.802Z,100271.34
2023-02-12T01:39:20.609Z,100275.13
2023-02-12T01:41:52.526Z,100271.47
2023-02-12T01:44:29.857Z,100272.63
2023-02-12T01:47:05.536Z,100270.69
2023-02-12T01:49:42.979Z,100276.09
2023-02-12T01:52:20.818Z,100281.44
2023-02-12T01:54:57.180Z,100280.19
2023-02-12T01:57:34.052Z,100280.50
2023-02-12T02:00:12.021Z,100277.41
2023-02-12T02:02:52.520Z,100268.28
2023-02-12T02:05:46.728Z,100257.44
2023-02-12T02:08:19.170Z,100259.41
2023-02-12T02:10:51.591Z,100265.31
2023-02-12T02:13:42.451Z,100258.72
2023-02-12T02:16:25.422Z,100262.25
2023-02-12T02:19:09.272Z,100262.72
2023-02-12T02:22:02.785Z,100264.91
2023-02-12T02:25:12.907Z,100275.38
2023-02-12T02:28:19.288Z,100265.41
2023-02-12T02:31:15.621Z,100266.38
2023-02-12T02:34:13.460Z,100265.53
2023-02-12T02:37:15.915Z,100265.00
2023-02-12T02:40:08.732Z,100275.56
2023-02-12T02:43:20.970Z,100268.81
2023-02-12T02:46:09.620Z,100269.06
2023-02-12T02:48:52.899Z,100270.81
2023-02-12T02:51:32.058Z,100275.16
2023-02-12T02:54:12.841Z,100272.06
2023-02-12T02:56:50.112Z,100274.13
2023-02-12T02:59:34.810Z,100268.38
2023-02-12T03:02:21.726Z,100268.47
2023-02-12T03:05:31.528Z,100263.16
2023-02-12T03:08:20.597Z,100267.13
2023-02-12T03:10:58.084Z,100269.41
2023-02-12T03:16:52.913Z,100263.50
2023-02-12T03:19:30.871Z,100266.22
2023-02-12T03:22:09.778Z,100258.19
2023-02-12T03:24:54.013Z,100259.94
2023-02-12T03:27:37.635Z,100262.03
2023-02-12T03:30:11.330Z,100263.41
2023-02-12T03:33:14.921Z,100257.88
2023-02-12T03:36:03.684Z,100259.06
2023-02-12T03:38:49.241Z,100255.63
2023-02-12T03:41:37.751Z,100250.34
2023-02-12T03:44:30.736Z,100258.13
2023-02-12T03:47:26.100Z,100263.44
2023-02-12T03:50:14.934Z,100255.53
2023-02-12T03:52:50.571Z,100269.13
2023-02-12T03:55:22.849Z,100273.97
2023-02-12T03:58:01.208Z,100264.81
2023-02-12T04:00:33.902Z,100268.44
2023-02-12T04:03:07.097Z,100255.31
2023-02-12T04:08:33.094Z,100268.97
2023-02-12T04:11:21.190Z,100261.41
2023-02-12T04:14:15.185Z,100266.94
2023-02-12T04:17:23.442Z,100265.69
2023-02-12T04:20:31.302Z,100274.31
2023-02-12T04:23:18.562Z,100278.31
2023-02-12T04:25:57.417Z,100275.34
2023-02-12T04:28:47.996Z,100275.69
2023-02-12T04:31:38.520Z,100279.81
2023-02-12T04:34:38.361Z,100272.22
2023-02-12T04:37:26.438Z,100266.13
2023-02-12T04:40:00.582Z,100273.69
2023-02-12T04:42:46.092Z,100272.66
2023-02-12T04:45:26.605Z,100278.38
2023-02-12T04:47:59.176Z,100275.13
2023-02-12T04:50:43.939Z,100280.84
2023-02-12T04:53:16.115Z,100281.91
2023-02-12T04:55:50.987Z,100293.28
2023-02-12T04:58:23.519Z,100277.41
2023-02-12T05:00:59.485Z,100272.94
2023-02-12T05:03:31.738Z,100280.38
2023-02-12T05:06:08.485Z,100273.66
2023-02-12T05:08:40.786Z,100269.00
2023-02-12T05:11:13.097Z,100265.69
2023-02-12T05:13:52.067Z,100265.69
2023-02-12T05:16:25.032Z,100265.03
2023-02-12T05:18:57.132Z,100262.25
2023-02-12T05:21:29.947Z,100259.31
2023-02-12T05:24:03.612Z,100261.56
2023-02-12T05:26:37.154Z,100255.72
2023-02-12T05:29:09.436Z,100262.59
2023-02-12T05:31:41.470Z,100257.59
2023-02-12T05:34:15.037Z,100251.13
2023-02-12T05:36:46.933Z,100265.72
2023-02-12T05:39:19.678Z,100260.53
2023-02-12T05:41:51.945Z,100261.22
2023-02-12T05:44:24.246Z,100250.00
2023-02-12T05:46:56.099Z,100254.50
2023-02-12T05:49:28.858Z,100248.25
2023-02-12T05:52:00.699Z,100243.28
2023-02-12T05:54:36.162Z,100253.66
2023-02-12T05:57:08.073Z,100245.34
2023-02-12T05:59:40.793Z,100246.22
2023-02-12T06:02:13.097Z,100245.03
2023-02-12T06:04:48.226Z,100242.94
2023-02-12T06:07:21.861Z,100240.72
2023-02-12T06:09:55.348Z,100248.97
2023-02-12T06:12:27.907Z,100251.91
2023-02-12T06:14:59.840Z,100245.34
2023-02-12T06:17:35.153Z,100249.16
2023-02-12T06:20:07.716Z,100250.38
2023-02-12T06:22:40.390Z,100256.06
2023-02-12T06:25:12.689Z,100257.94
2023-02-12T06:27:45.376Z,100255.53
2023-02-12T06:30:17.796Z,100244.53
2023-02-12T06:32:51.425Z,100247.78
2023-02-12T06:35:23.744Z,100249.47
2023-02-12T06:37:56.011Z,100249.31
2023-02-12T06:40:27.908Z,100259.84
2023-02-12T06:43:00.241Z,100260.34
2023-02-12T06:45:33.233Z,100248.63
2023-02-12T06:48:06.280Z,100241.50
2023-02-12T06:50:38.146Z,100244.25
2023-02-12T06:53:10.816Z,100253.56
2023-02-12T06:55:42.758Z,100257.34
2023-02-12T06:58:15.485Z,100257.69
2023-02-12T07:00:47.405Z,100250.78
2023-02-12T07:03:20.088Z,100261.47
2023-02-12T07:05:51.933Z,100256.81
2023-02-12T07:08:24.748Z,100255.25
2023-02-12T07:10:56.634Z,100254.00
2023-02-12T07:13:29.741Z,100264.69
2023-02-12T07:16:11.909Z,100257.25
2023-02-12T07:18:45.267Z,100261.75
2023-02-12T07:21:18.765Z,100263.00
2023-02-12T07:23:52.968Z,100261.78
2023-02-12T07:26:25.701Z,100269.34
2023-02-12T07:28:58.901Z,100270.69
2023-02-12T07:31:31.974Z,100265.63
2023-02-12T07:34:05.154Z,100269.22
2023-02-12T07:36:37.981Z,100271.66
2023-02-12T07:39:13.224Z,100278.69
2023-02-12T07:41:45.137Z,100275.38
2023-02-12T07:44:17.924Z,100270.56
2023-02-12T07:46:50.186Z,100277.94
2023-02-12T07:49:23.730Z,100277.97
2023-02-12T07:51:56.790Z,100281.63
2023-02-12T07:54:32.818Z,100282.84
2023-02-12T07:57:04.702Z,100273.44
2023-02-12T07:59:37.467Z,100276.34
2023-02-12T08:02:09.848Z,100276.84
2023-02-12T08:04:42.701Z,100278.09
2023-02-12T08:07:14.690Z,100278.25
2023-02-12T08:09:47.375Z,100277.66
2023-02-12T08:12:19.532Z,100283.31
2023-02-12T08:14:52.203Z,100275.66
2023-02-12T08:17:24.039Z,100286.16
2023-02-12T08:19:56.752Z,100277.28
2023-02-12T08:22:28.977Z,100290.84
2023-02-12T08:27:54.920Z,100285.88
2023-02-12T08:30:27.981Z,100284.53
2023-02-12T08:32:59.812Z,100284.69
2023-02-12T08:35:32.505Z,100289.41
2023-02-12T08:38:04.347Z,100281.00
2023-02-12T08:40:37.080Z,100284.94
2023-02-12T08:43:09.480Z,100284.88
2023-02-12T08:45:41.820Z,100278.22
2023-02-12T08:51:11.208Z,100264.84
2023-02-12T08:53:45.673Z,100251.72
2023-02-12T08:56:18.999Z,100252.06
2023-02-12T08:58:51.951Z,100260.25
2023-02-12T09:01:27.442Z,100256.84
2023-02-12T09:04:00.425Z,100264.06
2023-02-12T09:06:39.648Z,100260.19
2023-02-12T09:09:11.912Z,100253.69
2023-02-12T09:11:45.131Z,100253.97
2023-02-12T09:14:23.455Z,100252.44
2023-02-12T09:16:57.715Z,100251.38
2023-02-12T09:19:29.583Z,100242.13
2023-02-12T09:22:02.671Z,100243.50
2023-02-12T09:24:34.947Z,100238.34
2023-02-12T09:27:06.941Z,100246.13
2023-02-12T09:29:39.852Z,100255.50
2023-02-12T09:32:12.175Z,100247.09
2023-02-12T09:34:46.690Z,100250.53
2023-02-12T09:37:19.366Z,100242.06
2023-02-12T09:39:51.739Z,100250.31
2023-02-12T09:42:49.009Z,100249.63
2023-02-12T09:45:27.290Z,100254.88
2023-02-12T09:48:39.738Z,100250.03
2023-02-12T09:51:13.345Z,100247.53
2023-02-12T09:53:49.713Z,100250.22
2023-02-12T09:56:24.442Z,100248.09
2023-02-12T09:59:03.511Z,100248.72
2023-02-12T10:01:36.648Z,100245.97
2023-02-12T10:04:08.600Z,100236.63
2023-02-12T10:06:52.744Z,100244.56
2023-02-12T10:09:27.717Z,100243.47
2023-02-12T10:12:32.696Z,100244.72
2023-02-12T10:15:15.804Z,100243.75
2023-02-12T10:18:37.244Z,100245.69
2023-02-12T10:21:48.612Z,100247.63
2023-02-12T10:25:23.091Z,100247.28
2023-02-12T10:28:02.082Z,100248.72
2023-02-12T10:30:44.513Z,100256.81
2023-02-12T10:33:28.239Z,100260.00
2023-02-12T10:36:28.109Z,100250.53
2023-02-12T10:39:10.824Z,100263.16
2023-02-12T10:42:22.917Z,100242.97
2023-02-12T10:44:55.164Z,100246.63
2023-02-12T10:47:27.862Z,100249.91
2023-02-12T10:50:03.023Z,100250.47
2023-02-12T10:52:53.630Z,100243.00
2023-02-12T10:55:35.612Z,100244.69
2023-02-12T10:58:24.541Z,100245.88
2023-02-12T11:00:59.911Z,100245.53
2023-02-12T11:03:38.561Z,100240.25
2023-02-12T11:06:25.561Z,100239.75
2023-02-12T11:08:59.781Z,100216.81
2023-02-12T11:11:38.384Z,100215.25
2023-02-12T11:14:20.817Z,100215.44
2023-02-12T11:16:59.984Z,100215.13
2023-02-12T11:19:34.764Z,100211.00
2023-02-12T11:22:18.671Z,100213.69
2023-02-12T11:25:02.953Z,100206.13
2023-02-12T11:27:34.847Z,100197.19
2023-02-12T11:30:10.660Z,100189.94
2023-02-12T11:32:43.201Z,100201.59
2023-02-12T11:35:24.872Z,100191.56
2023-02-12T11:37:59.414Z,100190.16
2023-02-12T11:40:34.207Z,100188.94
2023-02-12T11:43:08.392Z,100174.22
2023-02-12T11:45:50.520Z,100178.13
2023-02-12T11:48:32.078Z,100183.72
2023-02-12T11:51:09.125Z,100180.78
2023-02-12T11:53:50.758Z,100179.78
2023-02-12T11:56:23.241Z,100182.06
2023-02-12T11:59:28.693Z,100157.94
2023-02-12T12:02:26.231Z,100171.09
2023-02-12T12:05:16.160Z,100165.50
2023-02-12T12:07:59.972Z,100169.41
2023-02-12T12:10:59.959Z,100165.13
2023-02-12T12:13:43.610Z,100170.34
2023-02-12T12:17:06.267Z,100155.09
2023-02-12T12:20:07.874Z,100155.44
2023-02-12T12:23:00.265Z,100156.25
2023-02-12T12:25:49.217Z,100156.66
2023-02-12T12:28:44.666Z,100157.53
2023-02-12T12:31:30.951Z,100150.19
2023-02-12T12:34:17.013Z,100149.66
2023-02-12T12:37:35.412Z,100141.50
2023-02-12T12:40:48.105Z,100142.81
2023-02-12T12:43:47.205Z,100147.56
2023-02-12T12:46:31.236Z,100140.31
2023-02-12T12:49:37.881Z,100132.00
2023-02-12T12:52:53.628Z,100136.16
2023-02-12T12:56:05.805Z,100130.59
2023-02-12T12:58:55.112Z,100137.09
2023-02-12T13:01:57.782Z,100133.22
2023-02-12T13:04:49.486Z,100134.09
2023-02-12T13:07:36.613Z,100136.53
2023-02-12T13:10:44.293Z,100133.50
2023-02-12T13:13:36.307Z,100127.91
2023-02-12T13:19:34.483Z,100129.31
2023-02-12T13:22:37.237Z,100123.03
2023-02-12T13:25:24.520Z,100111.50
2023-02-12T13:28:00.611Z,100111.72
2023-02-12T13:30:49.274Z,100114.56
2023-02-12T13:33:41.650Z,100115.38
2023-02-12T13:36:14.928Z,100116.19
2023-02-12T13:39:01.720Z,100101.31
2023-02-12T13:41:38.765Z,100114.22
2023-02-12T13:44:31.397Z,100096.84
2023-02-12T13:47:32.441Z,100096.59
2023-02-12T13:51:00.087Z,100090.25
2023-02-12T13:54:19.370Z,100090.09
2023-02-12T13:56:56.879Z,100082.94
2023-02-12T13:59:53.567Z,100084.75
2023-02-12T14:02:35.219Z,100086.22
2023-02-12T14:05:16.022Z,100083.59
2023-02-12T14:07:56.901Z,100085.78
2023-02-12T14:11:02.855Z,100077.66
2023-02-12T14:13:54.941Z,100069.13
2023-02-12T14:16:30.721Z,100069.03
2023-02-12T14:20:19.477Z,100069.66
2023-02-12T14:22:51.220Z,100070.09
2023-02-12T14:25:59.356Z,100064.91
2023-02-12T14:28:49.502Z,100070.16
2023-02-12T14:31:26.713Z,100068.44
2023-02-12T14:34:05.626Z,100061.63
2023-02-12T14:36:43.753Z,100056.38
2023-02-12T14:39:25.400Z,100060.91
2023-02-12T14:42:37.477Z,100064.81
2023-02-12T14:45:35.086Z,100062.19
2023-02-12T14:48:51.221Z,100068.56
2023-02-12T14:52:03.115Z,100063.44
2023-02-12T14:54:42.315Z,100064.81
2023-02-12T14:57:31.186Z,100073.13
2023-02-12T15:00:18.756Z,100064.34
2023-02-12T15:03:03.195Z,100065.81
2023-02-12T15:05:47.451Z,100060.91
2023-02-12T15:09:01.318Z,100072.16
2023-02-12T15:11:33.933Z,100066.81
2023-02-12T15:14:18.781Z,100063.66
2023-02-12T15:17:12.789Z,100066.69
2023-02-12T15:20:02.614Z,100072.50
2023-02-12T15:22:42.709Z,100064.56
2023-02-12T15:25:30.023Z,100068.47
2023-02-12T15:28:18.997Z,100075.44
2023-02-12T15:30:53.871Z,100074.66
2023-02-12T15:33:32.582Z,100064.09
2023-02-12T15:36:05.262Z,100079.81
2023-02-12T15:41:40.392Z,100075.59
2023-02-12T15:44:33.983Z,100081.91
2023-02-12T15:47:14.137Z,100077.88
2023-02-12T15:49:46.835Z,100075.91
2023-02-12T15:52:35.007Z,100075.84
2023-02-12T15:55:17.572Z,100079.75
2023-02-12T16:01:40.669Z,100076.69
2023-02-12T16:07:08.877Z,100076.97
2023-02-12T16:09:42.709Z,100075.47
2023-02-12T16:12:20.908Z,100074.13
2023-02-12T16:14:55.827Z,100077.78
2023-02-12T16:17:34.957Z,100079.84
2023-02-12T16:20:22.943Z,100076.94
2023-02-12T16:22:56.768Z,100076.41
2023-02-12T16:25:33.451Z,100078.09
2023-02-12T16:28:18.195Z,100080.31
2023-02-12T16:30:52.023Z,100074.41
2023-02-12T16:33:39.537Z,100081.88
2023-02-12T16:36:20.441Z,100081.69
2023-02-12T16:39:06.208Z,100081.47
2023-02-12T16:41:56.402Z,100090.25
2023-02-12T16:44:32.007Z,100092.88
2023-02-12T16:47:04.005Z,100091.41
2023-02-12T16:49:38.941Z,100092.13
2023-02-12T16:52:38.667Z,100090.59
2023-02-12T16:55:18.254Z,100089.94
2023-02-12T16:57:50.617Z,100097.03
2023-02-12T17:00:23.845Z,100089.50
2023-02-12T17:02:57.254Z,100088.13
2023-02-12T17:05:29.498Z,100092.03
2023-02-12T17:08:02.254Z,100087.06
2023-02-12T17:10:34.183Z,100093.13
2023-02-12T17:13:07.167Z,100093.16
2023-02-12T17:15:51.105Z,100092.91
2023-02-12T17:21:41.453Z,100092.44
2023-02-12T17:24:26.592Z,100098.06
2023-02-12T17:27:00.006Z,100101.50
2023-02-12T17:29:54.379Z,100103.06
2023-02-12T17:35:20.191Z,100099.03
2023-02-12T17:37:52.445Z,100100.19
2023-02-12T17:40:24.364Z,100097.00
2023-02-12T17:45:56.685Z,100099.00
2023-02-12T17:48:30.031Z,100099.50
2023-02-12T17:51:02.591Z,100097.13
2023-02-12T17:53:35.309Z,100104.22
2023-02-12T17:56:17.795Z,100106.22
2023-02-12T17:58:50.410Z,100098.19
2023-02-12T18:01:24.350Z,100097.06
2023-02-12T18:03:58.784Z,100101.88
2023-02-12T18:06:32.090Z,100104.75
2023-02-12T18:09:04.532Z,100101.50
2023-02-12T18:11:58.470Z,100103.13
2023-02-12T18:14:49.052Z,100107.19
2023-02-12T18:17:44.022Z,100104.91
2023-02-12T18:20:16.335Z,100104.00
2023-02-12T18:22:50.005Z,100109.59
2023-02-12T18:25:25.545Z,100110.66
2023-02-12T18:27:58.975Z,100117.41
2023-02-12T18:30:31.867Z,100117.28
2023-02-12T18:33:06.881Z,100118.97
2023-02-12T18:35:44.337Z,100116.03
2023-02-12T18:38:16.442Z,100108.44
2023-02-12T18:40:48.594Z,100118.44
2023-02-12T18:43:20.667Z,100115.25
2023-02-12T18:45:53.142Z,100102.97
2023-02-12T18:48:25.466Z,100107.78
2023-02-12T18:51:04.903Z,100107.53
2023-02-12T18:53:37.202Z,100112.41
2023-02-12T18:56:11.778Z,100103.09
2023-02-12T18:58:43.712Z,100106.84
2023-02-12T19:01:20.775Z,100109.56
2023-02-12T19:04:00.016Z,100103.31
2023-02-12T19:06:37.802Z,100109.06
2023-02-12T19:09:12.619Z,100092.16
2023-02-12T19:11:47.001Z,100097.25
2023-02-12T19:14:20.583Z,100101.13
2023-02-12T19:16:53.129Z,100096.00
2023-02-12T19:19:25.828Z,100110.06
2023-02-12T19:21:58.199Z,100101.47
2023-02-12T19:24:45.578Z,100107.59
2023-02-12T19:27:18.906Z,100115.41
2023-02-12T19:29:50.770Z,100112.91
2023-02-12T19:32:23.265Z,100117.31
2023-02-12T19:34:55.107Z,100113.69
2023-02-12T19:37:27.513Z,100111.88
2023-02-12T19:39:59.516Z,100110.78
2023-02-12T19:42:31.961Z,100112.28
2023-02-12T19:45:04.037Z,100122.91
2023-02-12T19:47:36.179Z,100116.97
2023-02-12T19:50:08.702Z,100116.41
2023-02-12T19:52:41.678Z,100113.84
2023-02-12T19:55:14.079Z,100119.75
2023-02-12T19:57:48.207Z,100119.75
2023-02-12T20:00:20.418Z,100121.13
2023-02-12T20:02:52.864Z,100123.25
2023-02-12T20:05:25.055Z,100119.16
2023-02-12T20:07:57.177Z,100122.75
2023-02-12T20:10:29.086Z,100109.81
2023-02-12T20:13:01.229Z,100118.72
2023-02-12T20:15:36.788Z,100128.38
2023-02-12T20:18:09.225Z,100118.88
2023-02-12T20:20:41.441Z,100121.66
2023-02-12T20:23:13.878Z,100128.06
2023-02-12T20:25:46.394Z,100123.38
2023-02-12T20:28:19.338Z,100110.13
2023-02-12T20:30:51.305Z,100123.00
2023-02-12T20:33:23.664Z,100122.88
2023-02-12T20:35:58.619Z,100123.31
2023-02-12T20:38:31.145Z,100132.16
2023-02-12T20:41:05.689Z,100134.91
2023-02-12T20:43:38.946Z,100140.81
2023-02-12T20:46:16.079Z,100140.81
2023-02-12T20:48:49.635Z,100141.91
2023-02-12T20:51:26.189Z,100143.41
2023-02-12T20:54:01.822Z,100148.63
2023-02-12T20:56:36.017Z,100150.00
2023-02-12T20:59:08.889Z,100152.22
2023-02-12T21:01:42.054Z,100145.91
2023-02-12T21:04:17.586Z,100147.69
2023-02-12T21:06:49.966Z,100153.31
2023-02-12T21:09:22.104Z,100141.06
2023-02-12T21:11:55.821Z,100142.19
2023-02-12T21:14:28.619Z,100144.94
2023-02-12T21:17:01.020Z,100138.91
2023-02-12T21:19:35.168Z,100137.81
2023-02-12T21:22:07.088Z,100147.69
2023-02-12T21:24:39.442Z,100150.28
2023-02-12T21:27:11.767Z,100156.34
2023-02-12T21:29:44.146Z,100154.41
2023-02-12T21:32:16.215Z,100153.47
2023-02-12T21:34:49.105Z,100150.88
2023-02-12T21:37:21.076Z,100152.66
2023-02-12T21:39:53.452Z,100149.22
2023-02-12T21:42:25.325Z,100145.94
2023-02-12T21:44:57.644Z,100150.59
2023-02-12T21:47:29.684Z,100144.00
2023-02-12T21:50:01.992Z,100143.31
2023-02-12T21:52:33.876Z,100145.25
2023-02-12T21:55:06.670Z,100151.81
2023-02-12T21:57:38.593Z,100152.53
2023-02-12T22:00:12.441Z,100160.13
2023-02-12T22:02:44.359Z,100150.56
2023-02-12T22:05:16.771Z,100150.69
2023-02-12T22:07:50.217Z,100148.22
2023-02-12T22:10:22.552Z,100156.16
2023-02-12T22:12:55.164Z,100148.09
2023-02-12T22:15:27.534Z,100147.16
2023-02-12T22:17:59.398Z,100144.41
2023-02-12T22:20:31.760Z,100144.97
2023-02-12T22:23:03.641Z,100136.47
2023-02-12T22:25:36.043Z,100137.41
2023-02-12T22:28:08.237Z,100133.84
2023-02-12T22:30:40.770Z,100129.59
2023-02-12T22:33:12.725Z,100132.22
2023-02-12T22:35:45.380Z,100134.41
2023-02-12T22:38:17.664Z,100131.97
2023-02-12T22:40:53.205Z,100136.63
2023-02-12T22:43:25.642Z,100137.72
2023-02-12T22:45:58.744Z,100138.66
2023-02-12T22:48:30.910Z,100146.06
2023-02-12T22:51:18.799Z,100139.88
2023-02-12T22:53:51.124Z,100149.22
2023-02-12T22:56:24.820Z,100148.31
2023-02-12T22:58:59.270Z,100146.53
2023-02-12T23:01:31.857Z,100149.66
2023-02-12T23:04:04.247Z,100149.91
2023-02-12T23:06:36.655Z,100150.06
2023-02-12T23:09:14.858Z,100148.38
2023-02-12T23:11:48.362Z,100153.00
2023-02-12T23:14:20.892Z,100155.13
2023-02-12T23:16:53.282Z,100158.44
2023-02-12T23:19:25.220Z,100158.84
2023-02-12T23:21:57.943Z,100158.06
2023-02-12T23:24:29.955Z,100157.41
2023-02-12T23:27:02.394Z,100163.94
2023-02-12T23:29:34.997Z,100176.84
2023-02-12T23:32:07.645Z,100173.16
2023-02-12T23:34:41.275Z,100181.75
2023-02-12T23:37:13.603Z,100183.00
2023-02-12T23:39:46.075Z,100184.06
2023-02-12T23:42:19.248Z,100178.69
2023-02-12T23:44:51.172Z,100185.09
2023-02-12T23:47:23.501Z,100181.91
2023-02-12T23:49:55.364Z,100182.75
2023-02-12T23:52:27.830Z,100191.09
2023-02-12T23:54:59.738Z,100188.56
2023-02-12T23:57:32.082Z,100190.09
